»·PEaware :: RRF98 KPMD-KNFL

RRF98 :: KPMD-KNFL

FLIGHT INFORMATION

Flight Status: Arrived
Operator: Unknown
More flights by this operator :: More flights under this callsign
Pilot: Matthew M. (8235)
Aircraft: BRITISH AERO BAe-146-100 STATESMAN
(B461)
More flights by this aircraft type
Origin: KPMD Palmdale AF Plant 42
United States
Destination: KNFL Fallon NAS
United States
More flights between these airports :: More routes between these airports
Route: +PMD J6 LANDO J65 EHF J5 TILTS RYANN
File this flight plan on PilotEdge
Remarks:
Altitude:
(Current/Filed)
24,000ft
Speed:
(Current/Filed)
300kts
Departed: 26-Apr-20 01:54 PM
Arrived: 26-Apr-20 02:52 PM
Distance/Time
Traveled:
289nm/0:58
Distance/Time
To Go:
Arrived

Flight Plot

Page will automatically refresh every two minutes.

Flight plan parsing failed; only flown route is shown


Map Options




Map Legend


Flown Route
Filed Route
Departure Airport
Arrival Airport
Navaid (VOR, NDB)
Fix

Horizontal Profiles

Position Reports

Time Latitude Longitude Heading Altitude Ground
Speed
26-Apr-20 13:33 34.639526 -118.071511 266 2551ft 0kts
26-Apr-20 13:34 34.639526 -118.071511 266 2551ft 0kts
26-Apr-20 13:35 34.639526 -118.071511 266 2551ft 0kts
26-Apr-20 13:36 34.639526 -118.071511 266 2551ft 0kts
26-Apr-20 13:37 34.639526 -118.071511 266 2551ft 0kts
26-Apr-20 13:38 34.639526 -118.071511 266 2551ft 0kts
26-Apr-20 13:39 34.639526 -118.071511 266 2551ft 0kts
26-Apr-20 13:40 34.639526 -118.071511 266 2551ft 0kts
26-Apr-20 13:40 34.639526 -118.071511 266 2551ft 0kts
26-Apr-20 13:42 34.639526 -118.071511 266 2551ft 0kts
26-Apr-20 13:43 34.639526 -118.071511 266 2551ft 0kts
26-Apr-20 13:43 34.639526 -118.071511 266 2551ft 0kts
26-Apr-20 13:44 34.639526 -118.071511 266 2551ft 0kts
26-Apr-20 13:46 34.639526 -118.071511 266 2551ft 0kts
26-Apr-20 13:46 34.639526 -118.071511 266 2551ft 0kts
26-Apr-20 13:47 34.639526 -118.071511 266 2551ft 0kts
26-Apr-20 13:48 34.639526 -118.071511 266 2551ft 0kts
26-Apr-20 13:50 34.637403 -118.071816 172 2551ft 27kts
26-Apr-20 13:50 34.635511 -118.073455 263 2551ft 14kts
26-Apr-20 13:51 34.633364 -118.073693 176 2551ft 0kts
26-Apr-20 13:52 34.632744 -118.073895 266 2551ft 0kts
26-Apr-20 13:53 34.631821 -118.091431 266 2650ft 136kts
26-Apr-20 13:54 34.644607 -118.131640 312 4518ft 140kts
26-Apr-20 13:55 34.673566 -118.168827 312 5824ft 176kts
26-Apr-20 13:56 34.716611 -118.224321 312 6628ft 259kts
26-Apr-20 13:57 34.764840 -118.292325 312 8705ft 270kts
26-Apr-20 13:58 34.819208 -118.360556 312 10350ft 302kts
26-Apr-20 13:59 34.879363 -118.437516 310 12232ft 318kts
26-Apr-20 14:00 34.941733 -118.517547 310 14526ft 330kts
26-Apr-20 14:01 35.006495 -118.599919 311 16865ft 342kts
26-Apr-20 14:02 35.080371 -118.676970 315 19003ft 355kts
26-Apr-20 14:03 35.158211 -118.753571 315 21011ft 364kts
26-Apr-20 14:04 35.237431 -118.832772 314 22882ft 372kts
26-Apr-20 14:05 35.318649 -118.915917 314 24052ft 394kts
26-Apr-20 14:06 35.406407 -119.006020 314 24052ft 419kts
26-Apr-20 14:07 35.497059 -119.083394 334 24048ft 395kts
26-Apr-20 14:08 35.605924 -119.106212 348 24050ft 402kts
26-Apr-20 14:09 35.718908 -119.117802 348 24053ft 411kts
26-Apr-20 14:10 35.833662 -119.132142 347 24047ft 417kts
26-Apr-20 14:11 35.949337 -119.147318 347 24048ft 415kts
26-Apr-20 14:12 36.063471 -119.162048 347 24048ft 409kts
26-Apr-20 14:13 36.176028 -119.177028 347 24049ft 406kts
26-Apr-20 14:14 36.289072 -119.184486 350 24048ft 407kts
26-Apr-20 14:15 36.400160 -119.197060 346 24051ft 402kts
26-Apr-20 14:16 36.510757 -119.215291 346 24054ft 401kts
26-Apr-20 14:17 36.621627 -119.232855 346 24059ft 401kts
26-Apr-20 14:18 36.732037 -119.250453 346 24065ft 400kts
26-Apr-20 14:19 36.842889 -119.267588 347 24074ft 400kts
26-Apr-20 14:20 36.953609 -119.282685 347 24083ft 400kts
26-Apr-20 14:21 37.064339 -119.297848 347 24100ft 400kts
26-Apr-20 14:22 37.174900 -119.313256 347 24122ft 399kts
26-Apr-20 14:23 37.285183 -119.328915 347 24148ft 399kts
26-Apr-20 14:24 37.395390 -119.344330 348 24169ft 399kts
26-Apr-20 14:25 37.505772 -119.359689 348 24187ft 401kts
26-Apr-20 14:26 37.618022 -119.375251 348 24197ft 409kts
26-Apr-20 14:27 37.731937 -119.391098 348 24217ft 414kts
26-Apr-20 14:28 37.846709 -119.407160 348 24210ft 412kts
26-Apr-20 14:29 37.959937 -119.423017 348 24199ft 409kts
26-Apr-20 14:30 38.072778 -119.438964 348 24197ft 405kts
26-Apr-20 14:31 38.184637 -119.454795 348 24188ft 403kts
26-Apr-20 14:32 38.295799 -119.470403 349 24178ft 402kts
26-Apr-20 14:33 38.406782 -119.485916 349 24170ft 401kts
26-Apr-20 14:34 38.517958 -119.501851 349 24163ft 400kts
26-Apr-20 14:35 38.628611 -119.513248 359 24158ft 396kts
26-Apr-20 14:36 38.734413 -119.481582 13 24157ft 388kts
26-Apr-20 14:37 38.835289 -119.437672 14 24155ft 380kts
26-Apr-20 14:38 38.934842 -119.395954 13 24166ft 372kts
26-Apr-20 14:39 39.033679 -119.355356 13 24139ft 376kts
26-Apr-20 14:40 39.129722 -119.315479 13 22551ft 354kts
26-Apr-20 14:41 39.223539 -119.273478 22 19752ft 357kts
26-Apr-20 14:42 39.305291 -119.204527 34 17458ft 346kts
26-Apr-20 14:43 39.376535 -119.134077 35 14876ft 308kts
26-Apr-20 14:44 39.440679 -119.069963 35 13608ft 289kts
26-Apr-20 14:45 39.502280 -119.005883 45 12184ft 282kts
26-Apr-20 14:46 39.546442 -118.923257 58 10826ft 275kts
26-Apr-20 14:47 39.545617 -118.839512 125 6532ft 240kts
26-Apr-20 14:48 39.499261 -118.774280 138 5365ft 188kts
26-Apr-20 14:49 39.469678 -118.745211 140 4641ft 116kts
26-Apr-20 14:50 39.443530 -118.720910 144 4177ft 116kts
26-Apr-20 14:51 39.428580 -118.708503 241 3942ft 27kts
26-Apr-20 14:52 39.426152 -118.710975 239 3942ft 9kts
26-Apr-20 14:53 39.425991 -118.711305 237 3942ft 0kts
26-Apr-20 14:54 39.425991 -118.711305 237 3942ft 0kts
26-Apr-20 14:55 39.425991 -118.711305 237 3942ft 0kts
26-Apr-20 14:56 39.425991 -118.711305 237 3942ft 0kts
26-Apr-20 14:57 39.425991 -118.711305 237 3942ft 0kts
26-Apr-20 14:58 39.425991 -118.711305 237 3942ft 0kts
26-Apr-20 14:59 39.425991 -118.711305 237 3942ft 0kts
26-Apr-20 15:00 39.425991 -118.711305 237 3942ft 0kts
26-Apr-20 15:01 39.425991 -118.711305 237 3942ft 0kts
26-Apr-20 15:02 39.425991 -118.711305 237 3942ft 0kts
26-Apr-20 15:03 39.425991 -118.711305 237 3942ft 0kts
26-Apr-20 15:04 39.425991 -118.711305 237 3942ft 0kts

Navigation Log

Ident Type
Flight plan parsing failed, navigation log unavailable